sensor_id;sensor_type;location;lat;lon;timestamp;P1;durP1;ratioP1;P2;durP2;ratioP2
6549;SDS011;15142;48.888;9.134;2022-12-18T00:02:10;71.73;;;28.93;;
6549;SDS011;15142;48.888;9.134;2022-12-18T00:04:37;78.60;;;31.77;;
6549;SDS011;15142;48.888;9.134;2022-12-18T00:07:04;88.10;;;29.80;;
6549;SDS011;15142;48.888;9.134;2022-12-18T00:09:31;81.07;;;27.20;;
6549;SDS011;15142;48.888;9.134;2022-12-18T00:11:58;67.40;;;24.90;;
6549;SDS011;15142;48.888;9.134;2022-12-18T00:14:26;77.20;;;28.60;;
6549;SDS011;15142;48.888;9.134;2022-12-18T00:16:53;81.97;;;29.20;;
6549;SDS011;15142;48.888;9.134;2022-12-18T00:19:19;99.33;;;31.80;;
6549;SDS011;15142;48.888;9.134;2022-12-18T00:21:46;85.27;;;30.67;;
6549;SDS011;15142;48.888;9.134;2022-12-18T00:24:12;87.60;;;33.37;;
6549;SDS011;15142;48.888;9.134;2022-12-18T00:26:39;81.13;;;27.97;;
6549;SDS011;15142;48.888;9.134;2022-12-18T00:29:06;68.17;;;27.00;;
6549;SDS011;15142;48.888;9.134;2022-12-18T00:31:38;77.20;;;29.03;;
6549;SDS011;15142;48.888;9.134;2022-12-18T00:34:04;78.87;;;29.13;;
6549;SDS011;15142;48.888;9.134;2022-12-18T00:36:31;73.43;;;25.53;;
6549;SDS011;15142;48.888;9.134;2022-12-18T00:39:00;92.07;;;27.23;;
6549;SDS011;15142;48.888;9.134;2022-12-18T00:41:29;97.90;;;29.53;;
6549;SDS011;15142;48.888;9.134;2022-12-18T00:44:15;98.00;;;31.03;;
6549;SDS011;15142;48.888;9.134;2022-12-18T00:46:45;74.83;;;28.27;;
6549;SDS011;15142;48.888;9.134;2022-12-18T00:49:12;103.13;;;31.13;;
6549;SDS011;15142;48.888;9.134;2022-12-18T00:51:39;81.57;;;29.00;;
6549;SDS011;15142;48.888;9.134;2022-12-18T00:54:06;73.67;;;29.13;;
6549;SDS011;15142;48.888;9.134;2022-12-18T00:56:34;72.73;;;28.67;;
6549;SDS011;15142;48.888;9.134;2022-12-18T00:59:01;76.83;;;28.37;;
6549;SDS011;15142;48.888;9.134;2022-12-18T01:01:28;94.07;;;33.03;;
6549;SDS011;15142;48.888;9.134;2022-12-18T01:03:56;67.33;;;28.80;;
6549;SDS011;15142;48.888;9.134;2022-12-18T01:06:24;93.33;;;34.20;;
6549;SDS011;15142;48.888;9.134;2022-12-18T01:08:50;70.00;;;30.10;;
6549;SDS011;15142;48.888;9.134;2022-12-18T01:11:18;85.37;;;30.37;;
6549;SDS011;15142;48.888;9.134;2022-12-18T01:13:46;108.60;;;30.40;;
6549;SDS011;15142;48.888;9.134;2022-12-18T01:16:13;73.63;;;27.43;;
6549;SDS011;15142;48.888;9.134;2022-12-18T01:18:40;86.67;;;28.80;;
6549;SDS011;15142;48.888;9.134;2022-12-18T01:21:09;88.07;;;29.07;;
6549;SDS011;15142;48.888;9.134;2022-12-18T01:23:37;96.07;;;32.80;;
6549;SDS011;15142;48.888;9.134;2022-12-18T01:26:04;90.90;;;29.83;;
6549;SDS011;15142;48.888;9.134;2022-12-18T01:28:34;66.70;;;30.40;;
6549;SDS011;15142;48.888;9.134;2022-12-18T01:31:14;83.87;;;31.13;;
6549;SDS011;15142;48.888;9.134;2022-12-18T01:33:43;99.70;;;31.77;;
6549;SDS011;15142;48.888;9.134;2022-12-18T01:36:16;82.23;;;31.00;;
6549;SDS011;15142;48.888;9.134;2022-12-18T01:38:44;89.13;;;30.73;;
6549;SDS011;15142;48.888;9.134;2022-12-18T01:41:12;77.53;;;28.07;;
6549;SDS011;15142;48.888;9.134;2022-12-18T01:43:43;106.37;;;29.20;;
6549;SDS011;15142;48.888;9.134;2022-12-18T01:46:10;75.90;;;28.07;;
6549;SDS011;15142;48.888;9.134;2022-12-18T01:48:37;84.57;;;27.87;;
6549;SDS011;15142;48.888;9.134;2022-12-18T01:51:06;88.03;;;30.13;;
6549;SDS011;15142;48.888;9.134;2022-12-18T01:53:36;84.67;;;32.30;;
6549;SDS011;15142;48.888;9.134;2022-12-18T01:56:05;116.07;;;33.97;;
6549;SDS011;15142;48.888;9.134;2022-12-18T01:58:40;92.97;;;34.93;;
6549;SDS011;15142;48.888;9.134;2022-12-18T02:01:14;92.50;;;33.50;;
6549;SDS011;15142;48.888;9.134;2022-12-18T02:03:41;82.00;;;26.70;;
6549;SDS011;15142;48.888;9.134;2022-12-18T02:06:10;82.73;;;27.73;;
6549;SDS011;15142;48.888;9.134;2022-12-18T02:08:48;68.80;;;29.30;;
6549;SDS011;15142;48.888;9.134;2022-12-18T02:11:25;83.87;;;31.07;;
6549;SDS011;15142;48.888;9.134;2022-12-18T02:14:03;73.77;;;29.53;;
6549;SDS011;15142;48.888;9.134;2022-12-18T02:16:39;108.13;;;34.90;;
6549;SDS011;15142;48.888;9.134;2022-12-18T02:19:15;69.77;;;28.00;;
6549;SDS011;15142;48.888;9.134;2022-12-18T02:21:55;80.67;;;29.47;;
6549;SDS011;15142;48.888;9.134;2022-12-18T02:24:35;115.57;;;33.47;;
6549;SDS011;15142;48.888;9.134;2022-12-18T02:27:09;88.70;;;31.37;;
6549;SDS011;15142;48.888;9.134;2022-12-18T02:29:37;90.03;;;32.07;;
6549;SDS011;15142;48.888;9.134;2022-12-18T02:32:08;88.43;;;31.03;;
6549;SDS011;15142;48.888;9.134;2022-12-18T02:34:38;75.53;;;28.70;;
6549;SDS011;15142;48.888;9.134;2022-12-18T02:37:12;86.10;;;33.00;;
6549;SDS011;15142;48.888;9.134;2022-12-18T02:39:42;77.80;;;31.70;;
6549;SDS011;15142;48.888;9.134;2022-12-18T02:42:13;80.30;;;31.43;;
6549;SDS011;15142;48.888;9.134;2022-12-18T02:44:42;85.77;;;32.07;;
6549;SDS011;15142;48.888;9.134;2022-12-18T02:47:11;81.83;;;28.07;;
6549;SDS011;15142;48.888;9.134;2022-12-18T02:49:41;87.97;;;31.60;;
6549;SDS011;15142;48.888;9.134;2022-12-18T02:52:16;80.33;;;31.00;;
6549;SDS011;15142;48.888;9.134;2022-12-18T02:54:55;72.80;;;29.60;;
6549;SDS011;15142;48.888;9.134;2022-12-18T02:57:32;83.13;;;29.93;;
6549;SDS011;15142;48.888;9.134;2022-12-18T03:00:03;105.60;;;29.90;;
6549;SDS011;15142;48.888;9.134;2022-12-18T03:02:35;90.93;;;31.00;;
6549;SDS011;15142;48.888;9.134;2022-12-18T03:05:07;73.87;;;28.77;;
6549;SDS011;15142;48.888;9.134;2022-12-18T03:07:42;76.57;;;29.77;;
6549;SDS011;15142;48.888;9.134;2022-12-18T03:10:14;87.00;;;26.60;;
6549;SDS011;15142;48.888;9.134;2022-12-18T03:12:46;88.10;;;29.50;;
6549;SDS011;15142;48.888;9.134;2022-12-18T03:15:17;78.90;;;29.87;;
6549;SDS011;15142;48.888;9.134;2022-12-18T03:17:52;84.37;;;32.00;;
6549;SDS011;15142;48.888;9.134;2022-12-18T03:20:25;90.63;;;28.47;;
6549;SDS011;15142;48.888;9.134;2022-12-18T03:22:57;77.40;;;27.83;;
6549;SDS011;15142;48.888;9.134;2022-12-18T03:25:32;85.37;;;31.20;;
6549;SDS011;15142;48.888;9.134;2022-12-18T03:28:03;92.17;;;28.20;;
6549;SDS011;15142;48.888;9.134;2022-12-18T03:30:34;70.40;;;25.23;;
6549;SDS011;15142;48.888;9.134;2022-12-18T03:33:05;87.47;;;28.30;;
6549;SDS011;15142;48.888;9.134;2022-12-18T03:35:36;69.63;;;26.53;;
6549;SDS011;15142;48.888;9.134;2022-12-18T03:38:05;82.33;;;26.00;;
6549;SDS011;15142;48.888;9.134;2022-12-18T03:40:38;48.83;;;21.40;;
6549;SDS011;15142;48.888;9.134;2022-12-18T03:43:14;68.43;;;24.07;;
6549;SDS011;15142;48.888;9.134;2022-12-18T03:45:47;68.23;;;25.13;;
6549;SDS011;15142;48.888;9.134;2022-12-18T03:48:18;78.43;;;27.97;;
6549;SDS011;15142;48.888;9.134;2022-12-18T03:50:49;89.03;;;27.17;;
6549;SDS011;15142;48.888;9.134;2022-12-18T03:53:23;79.13;;;26.33;;
6549;SDS011;15142;48.888;9.134;2022-12-18T03:55:58;60.30;;;24.97;;
6549;SDS011;15142;48.888;9.134;2022-12-18T03:58:33;76.37;;;26.33;;
6549;SDS011;15142;48.888;9.134;2022-12-18T04:01:14;61.53;;;26.10;;
6549;SDS011;15142;48.888;9.134;2022-12-18T04:03:44;61.13;;;25.37;;
6549;SDS011;15142;48.888;9.134;2022-12-18T04:06:16;65.47;;;23.07;;
6549;SDS011;15142;48.888;9.134;2022-12-18T04:08:44;81.63;;;27.33;;
6549;SDS011;15142;48.888;9.134;2022-12-18T04:11:16;88.40;;;28.23;;
6549;SDS011;15142;48.888;9.134;2022-12-18T04:13:46;56.80;;;23.17;;
6549;SDS011;15142;48.888;9.134;2022-12-18T04:16:18;64.43;;;22.83;;
6549;SDS011;15142;48.888;9.134;2022-12-18T04:18:48;65.13;;;23.57;;
6549;SDS011;15142;48.888;9.134;2022-12-18T04:21:15;83.37;;;27.73;;
6549;SDS011;15142;48.888;9.134;2022-12-18T04:23:42;69.73;;;24.70;;
6549;SDS011;15142;48.888;9.134;2022-12-18T04:26:09;80.13;;;23.13;;
6549;SDS011;15142;48.888;9.134;2022-12-18T04:29:07;73.23;;;22.57;;
6549;SDS011;15142;48.888;9.134;2022-12-18T04:31:33;53.67;;;24.03;;
6549;SDS011;15142;48.888;9.134;2022-12-18T04:34:01;61.60;;;24.17;;
6549;SDS011;15142;48.888;9.134;2022-12-18T04:36:29;71.33;;;27.53;;
6549;SDS011;15142;48.888;9.134;2022-12-18T04:38:56;66.40;;;26.80;;
6549;SDS011;15142;48.888;9.134;2022-12-18T04:41:23;71.03;;;26.07;;
6549;SDS011;15142;48.888;9.134;2022-12-18T04:43:51;64.77;;;23.93;;
6549;SDS011;15142;48.888;9.134;2022-12-18T04:46:20;72.27;;;25.50;;
6549;SDS011;15142;48.888;9.134;2022-12-18T04:48:46;64.50;;;23.13;;
6549;SDS011;15142;48.888;9.134;2022-12-18T04:51:13;72.23;;;25.60;;
6549;SDS011;15142;48.888;9.134;2022-12-18T04:53:40;69.30;;;26.40;;
6549;SDS011;15142;48.888;9.134;2022-12-18T04:56:08;65.80;;;22.70;;
6549;SDS011;15142;48.888;9.134;2022-12-18T04:58:36;69.20;;;25.83;;
6549;SDS011;15142;48.888;9.134;2022-12-18T05:01:03;64.40;;;25.43;;
6549;SDS011;15142;48.888;9.134;2022-12-18T05:03:32;57.30;;;25.57;;
6549;SDS011;15142;48.888;9.134;2022-12-18T05:05:58;68.40;;;25.10;;
6549;SDS011;15142;48.888;9.134;2022-12-18T05:08:25;75.97;;;25.77;;
6549;SDS011;15142;48.888;9.134;2022-12-18T05:10:57;53.70;;;22.53;;
6549;SDS011;15142;48.888;9.134;2022-12-18T05:13:24;57.83;;;21.37;;
6549;SDS011;15142;48.888;9.134;2022-12-18T05:15:51;59.93;;;25.20;;
6549;SDS011;15142;48.888;9.134;2022-12-18T05:18:18;68.20;;;22.93;;
6549;SDS011;15142;48.888;9.134;2022-12-18T05:20:46;70.30;;;24.13;;
6549;SDS011;15142;48.888;9.134;2022-12-18T05:23:13;74.87;;;28.27;;
6549;SDS011;15142;48.888;9.134;2022-12-18T05:25:40;70.53;;;28.07;;
6549;SDS011;15142;48.888;9.134;2022-12-18T05:28:06;62.90;;;25.00;;
6549;SDS011;15142;48.888;9.134;2022-12-18T05:30:33;64.93;;;24.70;;
6549;SDS011;15142;48.888;9.134;2022-12-18T05:33:00;66.67;;;25.10;;
6549;SDS011;15142;48.888;9.134;2022-12-18T05:35:26;82.80;;;27.00;;
6549;SDS011;15142;48.888;9.134;2022-12-18T05:37:54;75.53;;;30.30;;
6549;SDS011;15142;48.888;9.134;2022-12-18T05:40:21;60.00;;;22.60;;
6549;SDS011;15142;48.888;9.134;2022-12-18T05:42:47;73.53;;;26.00;;
6549;SDS011;15142;48.888;9.134;2022-12-18T05:45:14;61.00;;;22.53;;
6549;SDS011;15142;48.888;9.134;2022-12-18T05:47:40;67.87;;;24.40;;
6549;SDS011;15142;48.888;9.134;2022-12-18T05:50:07;70.93;;;22.50;;
6549;SDS011;15142;48.888;9.134;2022-12-18T05:52:34;60.20;;;26.77;;
6549;SDS011;15142;48.888;9.134;2022-12-18T05:55:02;52.27;;;20.47;;
6549;SDS011;15142;48.888;9.134;2022-12-18T05:57:30;63.50;;;23.20;;
6549;SDS011;15142;48.888;9.134;2022-12-18T05:59:56;65.23;;;25.03;;
6549;SDS011;15142;48.888;9.134;2022-12-18T06:02:23;73.20;;;25.53;;
6549;SDS011;15142;48.888;9.134;2022-12-18T06:04:49;58.57;;;23.83;;
6549;SDS011;15142;48.888;9.134;2022-12-18T06:07:16;66.60;;;25.10;;
6549;SDS011;15142;48.888;9.134;2022-12-18T06:09:43;65.47;;;26.40;;
6549;SDS011;15142;48.888;9.134;2022-12-18T06:12:11;80.17;;;24.03;;
6549;SDS011;15142;48.888;9.134;2022-12-18T06:14:37;59.60;;;23.67;;
6549;SDS011;15142;48.888;9.134;2022-12-18T06:17:04;58.93;;;23.70;;
6549;SDS011;15142;48.888;9.134;2022-12-18T06:19:32;63.95;;;22.60;;
6549;SDS011;15142;48.888;9.134;2022-12-18T06:21:59;51.00;;;23.20;;
6549;SDS011;15142;48.888;9.134;2022-12-18T06:24:25;71.60;;;23.60;;
6549;SDS011;15142;48.888;9.134;2022-12-18T06:26:52;57.53;;;20.23;;
6549;SDS011;15142;48.888;9.134;2022-12-18T06:29:20;55.83;;;21.10;;
6549;SDS011;15142;48.888;9.134;2022-12-18T06:31:46;58.90;;;22.00;;
6549;SDS011;15142;48.888;9.134;2022-12-18T06:34:13;68.50;;;21.53;;
6549;SDS011;15142;48.888;9.134;2022-12-18T06:36:39;78.57;;;25.90;;
6549;SDS011;15142;48.888;9.134;2022-12-18T06:39:06;53.83;;;20.47;;
6549;SDS011;15142;48.888;9.134;2022-12-18T06:41:33;59.20;;;19.87;;
6549;SDS011;15142;48.888;9.134;2022-12-18T06:43:59;65.43;;;23.00;;
6549;SDS011;15142;48.888;9.134;2022-12-18T06:46:27;53.37;;;21.00;;
6549;SDS011;15142;48.888;9.134;2022-12-18T06:48:54;50.37;;;20.63;;
6549;SDS011;15142;48.888;9.134;2022-12-18T06:51:21;58.30;;;22.97;;
6549;SDS011;15142;48.888;9.134;2022-12-18T06:53:49;60.27;;;22.83;;
6549;SDS011;15142;48.888;9.134;2022-12-18T06:56:15;50.43;;;20.67;;
6549;SDS011;15142;48.888;9.134;2022-12-18T06:58:42;69.60;;;23.23;;
6549;SDS011;15142;48.888;9.134;2022-12-18T07:01:10;65.37;;;24.10;;
6549;SDS011;15142;48.888;9.134;2022-12-18T07:03:39;57.63;;;23.93;;
6549;SDS011;15142;48.888;9.134;2022-12-18T07:06:11;57.17;;;22.10;;
6549;SDS011;15142;48.888;9.134;2022-12-18T07:08:40;58.00;;;25.63;;
6549;SDS011;15142;48.888;9.134;2022-12-18T07:11:06;53.13;;;20.83;;
6549;SDS011;15142;48.888;9.134;2022-12-18T07:13:33;61.60;;;20.70;;
6549;SDS011;15142;48.888;9.134;2022-12-18T07:16:03;60.63;;;21.90;;
6549;SDS011;15142;48.888;9.134;2022-12-18T07:18:31;52.03;;;21.90;;
6549;SDS011;15142;48.888;9.134;2022-12-18T07:20:59;54.57;;;21.40;;
6549;SDS011;15142;48.888;9.134;2022-12-18T07:23:29;54.90;;;21.57;;
6549;SDS011;15142;48.888;9.134;2022-12-18T07:26:00;61.17;;;23.03;;
6549;SDS011;15142;48.888;9.134;2022-12-18T07:28:27;51.53;;;21.90;;
6549;SDS011;15142;48.888;9.134;2022-12-18T07:30:53;64.77;;;23.47;;
6549;SDS011;15142;48.888;9.134;2022-12-18T07:33:20;63.00;;;22.60;;
6549;SDS011;15142;48.888;9.134;2022-12-18T07:35:46;60.40;;;23.77;;
6549;SDS011;15142;48.888;9.134;2022-12-18T07:38:14;40.37;;;19.73;;
6549;SDS011;15142;48.888;9.134;2022-12-18T07:40:41;61.67;;;22.97;;
6549;SDS011;15142;48.888;9.134;2022-12-18T07:43:07;71.47;;;23.47;;
6549;SDS011;15142;48.888;9.134;2022-12-18T07:45:34;65.77;;;24.07;;
6549;SDS011;15142;48.888;9.134;2022-12-18T07:48:01;54.97;;;22.00;;
6549;SDS011;15142;48.888;9.134;2022-12-18T07:50:28;54.63;;;25.17;;
6549;SDS011;15142;48.888;9.134;2022-12-18T07:52:54;61.40;;;25.77;;
6549;SDS011;15142;48.888;9.134;2022-12-18T07:55:22;59.60;;;24.60;;
6549;SDS011;15142;48.888;9.134;2022-12-18T07:57:49;52.30;;;20.43;;
6549;SDS011;15142;48.888;9.134;2022-12-18T08:00:16;52.30;;;21.37;;
6549;SDS011;15142;48.888;9.134;2022-12-18T08:02:43;63.73;;;24.03;;
6549;SDS011;15142;48.888;9.134;2022-12-18T08:05:09;60.03;;;23.67;;
6549;SDS011;15142;48.888;9.134;2022-12-18T08:07:36;58.47;;;23.30;;
6549;SDS011;15142;48.888;9.134;2022-12-18T08:10:02;60.10;;;25.57;;
6549;SDS011;15142;48.888;9.134;2022-12-18T08:12:31;59.83;;;22.60;;
6549;SDS011;15142;48.888;9.134;2022-12-18T08:14:58;68.00;;;25.13;;
6549;SDS011;15142;48.888;9.134;2022-12-18T08:17:25;53.40;;;24.60;;
6549;SDS011;15142;48.888;9.134;2022-12-18T08:19:51;62.33;;;23.73;;
6549;SDS011;15142;48.888;9.134;2022-12-18T08:22:18;59.17;;;24.60;;
6549;SDS011;15142;48.888;9.134;2022-12-18T08:24:44;70.27;;;26.47;;
6549;SDS011;15142;48.888;9.134;2022-12-18T08:27:11;62.60;;;25.50;;
6549;SDS011;15142;48.888;9.134;2022-12-18T08:29:39;54.30;;;24.10;;
6549;SDS011;15142;48.888;9.134;2022-12-18T08:32:05;58.67;;;24.40;;
6549;SDS011;15142;48.888;9.134;2022-12-18T08:34:32;61.87;;;23.43;;
6549;SDS011;15142;48.888;9.134;2022-12-18T08:36:59;66.10;;;23.27;;
6549;SDS011;15142;48.888;9.134;2022-12-18T08:39:25;69.20;;;23.87;;
6549;SDS011;15142;48.888;9.134;2022-12-18T08:41:52;68.07;;;24.27;;
6549;SDS011;15142;48.888;9.134;2022-12-18T08:44:32;66.60;;;25.93;;
6549;SDS011;15142;48.888;9.134;2022-12-18T08:47:07;50.10;;;23.07;;
6549;SDS011;15142;48.888;9.134;2022-12-18T08:49:34;59.90;;;26.10;;
6549;SDS011;15142;48.888;9.134;2022-12-18T08:52:01;57.07;;;23.97;;
6549;SDS011;15142;48.888;9.134;2022-12-18T08:54:28;84.00;;;25.33;;
6549;SDS011;15142;48.888;9.134;2022-12-18T08:56:55;69.03;;;23.00;;
6549;SDS011;15142;48.888;9.134;2022-12-18T08:59:21;53.07;;;22.00;;
6549;SDS011;15142;48.888;9.134;2022-12-18T09:01:48;59.57;;;25.90;;
6549;SDS011;15142;48.888;9.134;2022-12-18T09:04:16;64.27;;;23.73;;
6549;SDS011;15142;48.888;9.134;2022-12-18T09:06:43;66.90;;;26.70;;
6549;SDS011;15142;48.888;9.134;2022-12-18T09:09:09;53.97;;;22.97;;
6549;SDS011;15142;48.888;9.134;2022-12-18T09:11:36;57.17;;;24.87;;
6549;SDS011;15142;48.888;9.134;2022-12-18T09:14:03;54.07;;;23.90;;
6549;SDS011;15142;48.888;9.134;2022-12-18T09:16:29;59.87;;;24.70;;
6549;SDS011;15142;48.888;9.134;2022-12-18T09:19:00;62.27;;;26.27;;
6549;SDS011;15142;48.888;9.134;2022-12-18T09:21:29;56.00;;;25.03;;
6549;SDS011;15142;48.888;9.134;2022-12-18T09:23:57;62.20;;;25.67;;
6549;SDS011;15142;48.888;9.134;2022-12-18T09:26:24;63.63;;;26.10;;
6549;SDS011;15142;48.888;9.134;2022-12-18T09:28:52;82.03;;;23.30;;
6549;SDS011;15142;48.888;9.134;2022-12-18T09:31:20;58.80;;;22.10;;
6549;SDS011;15142;48.888;9.134;2022-12-18T09:33:48;60.10;;;24.70;;
6549;SDS011;15142;48.888;9.134;2022-12-18T09:36:15;62.60;;;24.70;;
6549;SDS011;15142;48.888;9.134;2022-12-18T09:38:44;64.23;;;23.87;;
6549;SDS011;15142;48.888;9.134;2022-12-18T09:41:15;64.73;;;25.40;;
6549;SDS011;15142;48.888;9.134;2022-12-18T09:43:51;74.57;;;28.40;;
6549;SDS011;15142;48.888;9.134;2022-12-18T09:46:23;67.80;;;26.20;;
6549;SDS011;15142;48.888;9.134;2022-12-18T09:48:54;61.73;;;26.67;;
6549;SDS011;15142;48.888;9.134;2022-12-18T09:51:26;58.80;;;25.07;;
6549;SDS011;15142;48.888;9.134;2022-12-18T09:54:00;64.40;;;25.00;;
6549;SDS011;15142;48.888;9.134;2022-12-18T09:56:31;59.70;;;23.47;;
6549;SDS011;15142;48.888;9.134;2022-12-18T09:59:03;71.30;;;25.90;;
6549;SDS011;15142;48.888;9.134;2022-12-18T10:01:31;82.37;;;28.43;;
6549;SDS011;15142;48.888;9.134;2022-12-18T10:03:58;60.80;;;25.07;;
6549;SDS011;15142;48.888;9.134;2022-12-18T10:06:26;65.93;;;27.03;;
6549;SDS011;15142;48.888;9.134;2022-12-18T10:09:00;63.63;;;25.27;;
6549;SDS011;15142;48.888;9.134;2022-12-18T10:11:34;83.00;;;25.83;;
6549;SDS011;15142;48.888;9.134;2022-12-18T10:14:08;77.70;;;26.90;;
6549;SDS011;15142;48.888;9.134;2022-12-18T10:16:42;75.17;;;24.40;;
6549;SDS011;15142;48.888;9.134;2022-12-18T10:19:17;58.10;;;24.03;;
6549;SDS011;15142;48.888;9.134;2022-12-18T10:22:02;70.40;;;25.20;;
6549;SDS011;15142;48.888;9.134;2022-12-18T10:24:44;82.90;;;25.17;;
6549;SDS011;15142;48.888;9.134;2022-12-18T10:27:21;65.20;;;26.53;;
6549;SDS011;15142;48.888;9.134;2022-12-18T10:29:49;58.33;;;24.73;;
6549;SDS011;15142;48.888;9.134;2022-12-18T10:32:17;70.10;;;23.20;;
6549;SDS011;15142;48.888;9.134;2022-12-18T10:34:47;60.30;;;27.40;;
6549;SDS011;15142;48.888;9.134;2022-12-18T10:37:16;57.87;;;24.50;;
6549;SDS011;15142;48.888;9.134;2022-12-18T10:39:46;55.93;;;22.40;;
6549;SDS011;15142;48.888;9.134;2022-12-18T10:42:16;65.40;;;24.40;;
6549;SDS011;15142;48.888;9.134;2022-12-18T10:44:45;61.80;;;27.07;;
6549;SDS011;15142;48.888;9.134;2022-12-18T10:47:12;74.20;;;28.03;;
6549;SDS011;15142;48.888;9.134;2022-12-18T10:49:42;56.27;;;24.60;;
6549;SDS011;15142;48.888;9.134;2022-12-18T10:52:15;66.80;;;23.70;;
6549;SDS011;15142;48.888;9.134;2022-12-18T10:54:49;61.60;;;22.80;;
6549;SDS011;15142;48.888;9.134;2022-12-18T10:57:28;53.00;;;23.93;;
6549;SDS011;15142;48.888;9.134;2022-12-18T10:59:58;65.77;;;23.93;;
6549;SDS011;15142;48.888;9.134;2022-12-18T11:02:28;49.77;;;22.33;;
6549;SDS011;15142;48.888;9.134;2022-12-18T11:05:01;61.17;;;24.20;;
6549;SDS011;15142;48.888;9.134;2022-12-18T11:07:37;52.87;;;24.30;;
6549;SDS011;15142;48.888;9.134;2022-12-18T11:10:16;52.80;;;22.73;;
6549;SDS011;15142;48.888;9.134;2022-12-18T11:12:44;53.83;;;23.43;;
6549;SDS011;15142;48.888;9.134;2022-12-18T11:15:14;50.57;;;23.20;;
6549;SDS011;15142;48.888;9.134;2022-12-18T11:17:42;54.33;;;23.73;;
6549;SDS011;15142;48.888;9.134;2022-12-18T11:20:19;48.90;;;21.93;;
6549;SDS011;15142;48.888;9.134;2022-12-18T11:22:54;48.13;;;21.77;;
6549;SDS011;15142;48.888;9.134;2022-12-18T11:25:24;50.37;;;22.70;;
6549;SDS011;15142;48.888;9.134;2022-12-18T11:27:51;42.43;;;20.43;;
6549;SDS011;15142;48.888;9.134;2022-12-18T11:30:23;51.70;;;22.43;;
6549;SDS011;15142;48.888;9.134;2022-12-18T11:32:52;52.40;;;22.20;;
6549;SDS011;15142;48.888;9.134;2022-12-18T11:35:23;50.80;;;22.60;;
6549;SDS011;15142;48.888;9.134;2022-12-18T11:37:59;51.50;;;21.90;;
6549;SDS011;15142;48.888;9.134;2022-12-18T11:40:33;56.50;;;21.90;;
6549;SDS011;15142;48.888;9.134;2022-12-18T11:43:02;63.43;;;21.50;;
6549;SDS011;15142;48.888;9.134;2022-12-18T11:45:34;49.70;;;21.77;;
6549;SDS011;15142;48.888;9.134;2022-12-18T11:48:09;49.37;;;20.63;;
6549;SDS011;15142;48.888;9.134;2022-12-18T11:50:44;50.47;;;23.97;;
6549;SDS011;15142;48.888;9.134;2022-12-18T11:53:14;50.57;;;23.30;;
6549;SDS011;15142;48.888;9.134;2022-12-18T11:55:45;41.63;;;20.13;;
6549;SDS011;15142;48.888;9.134;2022-12-18T11:58:24;53.23;;;22.57;;
6549;SDS011;15142;48.888;9.134;2022-12-18T12:01:05;56.53;;;22.13;;
6549;SDS011;15142;48.888;9.134;2022-12-18T12:03:45;59.73;;;22.70;;
6549;SDS011;15142;48.888;9.134;2022-12-18T12:06:21;45.67;;;21.07;;
6549;SDS011;15142;48.888;9.134;2022-12-18T12:09:00;53.53;;;22.60;;
6549;SDS011;15142;48.888;9.134;2022-12-18T12:11:37;55.30;;;20.90;;
6549;SDS011;15142;48.888;9.134;2022-12-18T12:14:22;59.33;;;22.57;;
6549;SDS011;15142;48.888;9.134;2022-12-18T12:17:10;52.23;;;23.87;;
6549;SDS011;15142;48.888;9.134;2022-12-18T12:19:43;55.50;;;25.00;;
6549;SDS011;15142;48.888;9.134;2022-12-18T12:22:12;54.77;;;24.17;;
6549;SDS011;15142;48.888;9.134;2022-12-18T12:24:48;71.43;;;24.13;;
6549;SDS011;15142;48.888;9.134;2022-12-18T12:27:23;53.03;;;24.83;;
6549;SDS011;15142;48.888;9.134;2022-12-18T12:29:58;47.03;;;21.00;;
6549;SDS011;15142;48.888;9.134;2022-12-18T12:32:33;52.73;;;23.47;;
6549;SDS011;15142;48.888;9.134;2022-12-18T12:35:13;59.27;;;23.97;;
6549;SDS011;15142;48.888;9.134;2022-12-18T12:37:50;55.87;;;23.70;;
6549;SDS011;15142;48.888;9.134;2022-12-18T12:40:26;55.90;;;23.57;;
6549;SDS011;15142;48.888;9.134;2022-12-18T12:42:55;61.10;;;25.43;;
6549;SDS011;15142;48.888;9.134;2022-12-18T12:45:41;50.80;;;22.27;;
6549;SDS011;15142;48.888;9.134;2022-12-18T12:48:13;52.13;;;24.60;;
6549;SDS011;15142;48.888;9.134;2022-12-18T12:50:45;61.47;;;23.90;;
6549;SDS011;15142;48.888;9.134;2022-12-18T12:53:16;51.97;;;22.40;;
6549;SDS011;15142;48.888;9.134;2022-12-18T12:55:49;45.90;;;22.97;;
6549;SDS011;15142;48.888;9.134;2022-12-18T12:58:19;52.80;;;23.23;;
6549;SDS011;15142;48.888;9.134;2022-12-18T13:00:58;51.60;;;23.80;;
6549;SDS011;15142;48.888;9.134;2022-12-18T13:03:35;61.70;;;23.80;;
6549;SDS011;15142;48.888;9.134;2022-12-18T13:06:11;65.50;;;25.23;;
6549;SDS011;15142;48.888;9.134;2022-12-18T13:08:52;53.27;;;23.80;;
6549;SDS011;15142;48.888;9.134;2022-12-18T13:11:28;50.70;;;23.77;;
6549;SDS011;15142;48.888;9.134;2022-12-18T13:14:21;65.07;;;24.57;;
6549;SDS011;15142;48.888;9.134;2022-12-18T13:19:41;51.70;;;22.40;;
6549;SDS011;15142;48.888;9.134;2022-12-18T13:22:19;46.43;;;22.60;;
6549;SDS011;15142;48.888;9.134;2022-12-18T13:24:48;52.07;;;21.80;;
6549;SDS011;15142;48.888;9.134;2022-12-18T13:36:15;69.40;;;23.43;;
6549;SDS011;15142;48.888;9.134;2022-12-18T13:39:08;45.30;;;22.00;;
6549;SDS011;15142;48.888;9.134;2022-12-18T13:41:37;59.30;;;22.07;;
6549;SDS011;15142;48.888;9.134;2022-12-18T13:44:10;55.97;;;22.33;;
6549;SDS011;15142;48.888;9.134;2022-12-18T13:46:43;47.20;;;21.57;;
6549;SDS011;15142;48.888;9.134;2022-12-18T13:49:22;81.33;;;22.90;;
6549;SDS011;15142;48.888;9.134;2022-12-18T13:51:51;52.40;;;23.70;;
6549;SDS011;15142;48.888;9.134;2022-12-18T13:54:21;65.87;;;21.80;;
6549;SDS011;15142;48.888;9.134;2022-12-18T13:56:51;52.73;;;20.10;;
6549;SDS011;15142;48.888;9.134;2022-12-18T13:59:18;46.97;;;20.47;;
6549;SDS011;15142;48.888;9.134;2022-12-18T14:01:49;75.30;;;23.00;;
6549;SDS011;15142;48.888;9.134;2022-12-18T14:04:19;47.10;;;22.37;;
6549;SDS011;15142;48.888;9.134;2022-12-18T14:06:52;51.00;;;22.30;;
6549;SDS011;15142;48.888;9.134;2022-12-18T14:09:23;53.90;;;22.70;;
6549;SDS011;15142;48.888;9.134;2022-12-18T14:11:52;54.10;;;21.53;;
6549;SDS011;15142;48.888;9.134;2022-12-18T14:14:42;78.17;;;22.60;;
6549;SDS011;15142;48.888;9.134;2022-12-18T14:17:11;59.50;;;21.03;;
6549;SDS011;15142;48.888;9.134;2022-12-18T14:19:41;56.23;;;22.50;;
6549;SDS011;15142;48.888;9.134;2022-12-18T14:22:17;52.80;;;21.50;;
6549;SDS011;15142;48.888;9.134;2022-12-18T14:24:46;48.37;;;20.67;;
6549;SDS011;15142;48.888;9.134;2022-12-18T14:27:19;54.60;;;21.30;;
6549;SDS011;15142;48.888;9.134;2022-12-18T14:29:48;51.27;;;20.57;;
6549;SDS011;15142;48.888;9.134;2022-12-18T14:32:16;58.47;;;21.90;;
6549;SDS011;15142;48.888;9.134;2022-12-18T14:34:44;61.37;;;20.87;;
6549;SDS011;15142;48.888;9.134;2022-12-18T14:37:12;70.67;;;21.43;;
6549;SDS011;15142;48.888;9.134;2022-12-18T14:39:40;60.77;;;21.63;;
6549;SDS011;15142;48.888;9.134;2022-12-18T14:42:17;85.03;;;24.50;;
6549;SDS011;15142;48.888;9.134;2022-12-18T14:44:44;68.47;;;22.80;;
6549;SDS011;15142;48.888;9.134;2022-12-18T14:47:13;56.30;;;23.37;;
6549;SDS011;15142;48.888;9.134;2022-12-18T14:49:42;57.50;;;23.93;;
6549;SDS011;15142;48.888;9.134;2022-12-18T14:52:13;63.67;;;24.20;;
6549;SDS011;15142;48.888;9.134;2022-12-18T14:54:47;49.23;;;21.77;;
6549;SDS011;15142;48.888;9.134;2022-12-18T14:57:16;62.47;;;22.63;;
6549;SDS011;15142;48.888;9.134;2022-12-18T14:59:47;58.13;;;24.30;;
6549;SDS011;15142;48.888;9.134;2022-12-18T15:02:15;57.97;;;25.40;;
6549;SDS011;15142;48.888;9.134;2022-12-18T15:04:47;67.10;;;25.40;;